sensor_id;sensor_type;location;lat;lon;timestamp;P1;durP1;ratioP1;P2;durP2;ratioP2
16385;SDS011;8302;51.154;4.456;2022-12-10T00:00:20;7.28;;;4.05;;
16385;SDS011;8302;51.154;4.456;2022-12-10T00:02:49;8.23;;;2.85;;
16385;SDS011;8302;51.154;4.456;2022-12-10T00:05:17;7.68;;;4.43;;
16385;SDS011;8302;51.154;4.456;2022-12-10T00:07:47;6.70;;;3.83;;
16385;SDS011;8302;51.154;4.456;2022-12-10T00:10:15;9.60;;;4.13;;
16385;SDS011;8302;51.154;4.456;2022-12-10T00:12:43;5.95;;;3.10;;
16385;SDS011;8302;51.154;4.456;2022-12-10T00:15:11;9.90;;;4.63;;
16385;SDS011;8302;51.154;4.456;2022-12-10T00:17:43;3.45;;;2.17;;
16385;SDS011;8302;51.154;4.456;2022-12-10T00:20:13;6.00;;;3.20;;
16385;SDS011;8302;51.154;4.456;2022-12-10T00:22:41;7.97;;;4.13;;
16385;SDS011;8302;51.154;4.456;2022-12-10T00:25:10;4.55;;;3.40;;
16385;SDS011;8302;51.154;4.456;2022-12-10T00:27:38;6.47;;;4.03;;
16385;SDS011;8302;51.154;4.456;2022-12-10T00:30:06;8.07;;;3.03;;
16385;SDS011;8302;51.154;4.456;2022-12-10T00:32:35;5.90;;;3.63;;
16385;SDS011;8302;51.154;4.456;2022-12-10T00:35:05;9.82;;;4.25;;
16385;SDS011;8302;51.154;4.456;2022-12-10T00:37:35;5.22;;;3.10;;
16385;SDS011;8302;51.154;4.456;2022-12-10T00:40:05;8.27;;;3.42;;
16385;SDS011;8302;51.154;4.456;2022-12-10T00:42:33;7.05;;;3.45;;
16385;SDS011;8302;51.154;4.456;2022-12-10T00:45:02;10.32;;;3.60;;
16385;SDS011;8302;51.154;4.456;2022-12-10T00:47:30;4.93;;;2.65;;
16385;SDS011;8302;51.154;4.456;2022-12-10T00:49:58;8.43;;;3.70;;
16385;SDS011;8302;51.154;4.456;2022-12-10T00:52:26;9.38;;;4.80;;
16385;SDS011;8302;51.154;4.456;2022-12-10T00:54:58;11.07;;;4.00;;
16385;SDS011;8302;51.154;4.456;2022-12-10T00:57:26;9.15;;;4.55;;
16385;SDS011;8302;51.154;4.456;2022-12-10T00:59:54;6.90;;;3.65;;
16385;SDS011;8302;51.154;4.456;2022-12-10T01:02:22;7.78;;;3.53;;
16385;SDS011;8302;51.154;4.456;2022-12-10T01:04:51;5.90;;;4.00;;
16385;SDS011;8302;51.154;4.456;2022-12-10T01:07:19;6.57;;;2.90;;
16385;SDS011;8302;51.154;4.456;2022-12-10T01:09:49;10.98;;;3.13;;
16385;SDS011;8302;51.154;4.456;2022-12-10T01:12:18;10.18;;;3.13;;
16385;SDS011;8302;51.154;4.456;2022-12-10T01:14:46;9.15;;;3.55;;
16385;SDS011;8302;51.154;4.456;2022-12-10T01:17:15;6.63;;;3.72;;
16385;SDS011;8302;51.154;4.456;2022-12-10T01:19:43;7.38;;;4.03;;
16385;SDS011;8302;51.154;4.456;2022-12-10T01:22:11;5.00;;;3.25;;
16385;SDS011;8302;51.154;4.456;2022-12-10T01:24:39;7.35;;;3.50;;
16385;SDS011;8302;51.154;4.456;2022-12-10T01:27:07;7.03;;;3.00;;
16385;SDS011;8302;51.154;4.456;2022-12-10T01:29:37;7.05;;;2.90;;
16385;SDS011;8302;51.154;4.456;2022-12-10T01:32:07;6.05;;;3.53;;
16385;SDS011;8302;51.154;4.456;2022-12-10T01:34:37;11.10;;;4.10;;
16385;SDS011;8302;51.154;4.456;2022-12-10T01:37:06;4.95;;;2.97;;
16385;SDS011;8302;51.154;4.456;2022-12-10T01:39:34;8.70;;;3.83;;
16385;SDS011;8302;51.154;4.456;2022-12-10T01:42:02;7.10;;;3.55;;
16385;SDS011;8302;51.154;4.456;2022-12-10T01:47:20;6.82;;;3.85;;
16385;SDS011;8302;51.154;4.456;2022-12-10T01:49:50;8.52;;;4.32;;
16385;SDS011;8302;51.154;4.456;2022-12-10T01:52:18;9.13;;;3.45;;
16385;SDS011;8302;51.154;4.456;2022-12-10T01:54:47;8.32;;;2.95;;
16385;SDS011;8302;51.154;4.456;2022-12-10T01:57:16;4.95;;;3.35;;
16385;SDS011;8302;51.154;4.456;2022-12-10T01:59:46;8.93;;;4.20;;
16385;SDS011;8302;51.154;4.456;2022-12-10T02:02:17;8.88;;;3.08;;
16385;SDS011;8302;51.154;4.456;2022-12-10T02:04:53;7.00;;;2.70;;
16385;SDS011;8302;51.154;4.456;2022-12-10T02:07:27;8.43;;;3.33;;
16385;SDS011;8302;51.154;4.456;2022-12-10T02:10:02;6.95;;;2.92;;
16385;SDS011;8302;51.154;4.456;2022-12-10T02:12:33;4.10;;;2.55;;
16385;SDS011;8302;51.154;4.456;2022-12-10T02:15:04;8.05;;;4.35;;
16385;SDS011;8302;51.154;4.456;2022-12-10T02:17:34;8.25;;;4.07;;
16385;SDS011;8302;51.154;4.456;2022-12-10T02:20:07;5.70;;;3.80;;
16385;SDS011;8302;51.154;4.456;2022-12-10T02:22:40;5.07;;;2.95;;
16385;SDS011;8302;51.154;4.456;2022-12-10T02:25:10;4.03;;;2.58;;
16385;SDS011;8302;51.154;4.456;2022-12-10T02:27:43;4.68;;;3.08;;
16385;SDS011;8302;51.154;4.456;2022-12-10T02:30:15;4.82;;;3.00;;
16385;SDS011;8302;51.154;4.456;2022-12-10T02:32:43;6.38;;;2.40;;
16385;SDS011;8302;51.154;4.456;2022-12-10T02:35:14;9.18;;;3.97;;
16385;SDS011;8302;51.154;4.456;2022-12-10T02:37:45;5.07;;;3.17;;
16385;SDS011;8302;51.154;4.456;2022-12-10T02:40:16;5.40;;;3.45;;
16385;SDS011;8302;51.154;4.456;2022-12-10T02:42:49;6.18;;;3.47;;
16385;SDS011;8302;51.154;4.456;2022-12-10T02:45:21;7.93;;;3.88;;
16385;SDS011;8302;51.154;4.456;2022-12-10T02:47:52;7.38;;;3.47;;
16385;SDS011;8302;51.154;4.456;2022-12-10T02:50:22;6.63;;;4.00;;
16385;SDS011;8302;51.154;4.456;2022-12-10T02:52:51;5.03;;;3.70;;
16385;SDS011;8302;51.154;4.456;2022-12-10T02:55:18;6.63;;;3.08;;
16385;SDS011;8302;51.154;4.456;2022-12-10T02:57:54;5.40;;;3.03;;
16385;SDS011;8302;51.154;4.456;2022-12-10T03:00:28;6.25;;;3.20;;
16385;SDS011;8302;51.154;4.456;2022-12-10T03:03:07;38.20;;;14.43;;
16385;SDS011;8302;51.154;4.456;2022-12-10T03:05:40;5.18;;;2.85;;
16385;SDS011;8302;51.154;4.456;2022-12-10T03:08:11;12.23;;;5.10;;
16385;SDS011;8302;51.154;4.456;2022-12-10T03:10:42;9.25;;;3.85;;
16385;SDS011;8302;51.154;4.456;2022-12-10T03:13:13;5.45;;;2.95;;
16385;SDS011;8302;51.154;4.456;2022-12-10T03:15:44;7.35;;;3.95;;
16385;SDS011;8302;51.154;4.456;2022-12-10T03:18:12;5.47;;;3.40;;
16385;SDS011;8302;51.154;4.456;2022-12-10T03:20:42;8.10;;;4.15;;
16385;SDS011;8302;51.154;4.456;2022-12-10T03:23:13;11.68;;;4.43;;
16385;SDS011;8302;51.154;4.456;2022-12-10T03:25:42;3.40;;;2.60;;
16385;SDS011;8302;51.154;4.456;2022-12-10T03:28:12;6.25;;;3.78;;
16385;SDS011;8302;51.154;4.456;2022-12-10T03:30:40;5.88;;;3.47;;
16385;SDS011;8302;51.154;4.456;2022-12-10T03:33:11;5.35;;;2.90;;
16385;SDS011;8302;51.154;4.456;2022-12-10T03:35:40;4.03;;;2.20;;
16385;SDS011;8302;51.154;4.456;2022-12-10T03:38:08;6.75;;;2.83;;
16385;SDS011;8302;51.154;4.456;2022-12-10T03:40:36;6.03;;;3.42;;
16385;SDS011;8302;51.154;4.456;2022-12-10T03:43:05;6.30;;;2.90;;
16385;SDS011;8302;51.154;4.456;2022-12-10T03:45:32;7.40;;;3.03;;
16385;SDS011;8302;51.154;4.456;2022-12-10T03:48:01;7.35;;;3.28;;
16385;SDS011;8302;51.154;4.456;2022-12-10T03:50:30;7.05;;;3.63;;
16385;SDS011;8302;51.154;4.456;2022-12-10T03:52:59;7.32;;;4.03;;
16385;SDS011;8302;51.154;4.456;2022-12-10T03:55:27;6.07;;;2.80;;
16385;SDS011;8302;51.154;4.456;2022-12-10T03:57:54;7.88;;;3.78;;
16385;SDS011;8302;51.154;4.456;2022-12-10T04:00:23;5.25;;;3.42;;
16385;SDS011;8302;51.154;4.456;2022-12-10T04:02:51;6.28;;;3.10;;
16385;SDS011;8302;51.154;4.456;2022-12-10T04:05:19;7.15;;;3.25;;
16385;SDS011;8302;51.154;4.456;2022-12-10T04:07:48;6.47;;;3.17;;
16385;SDS011;8302;51.154;4.456;2022-12-10T04:10:16;7.85;;;2.90;;
16385;SDS011;8302;51.154;4.456;2022-12-10T04:12:46;6.50;;;2.90;;
16385;SDS011;8302;51.154;4.456;2022-12-10T04:15:37;6.78;;;3.38;;
16385;SDS011;8302;51.154;4.456;2022-12-10T04:18:24;5.28;;;2.63;;
16385;SDS011;8302;51.154;4.456;2022-12-10T04:20:53;4.47;;;3.17;;
16385;SDS011;8302;51.154;4.456;2022-12-10T04:23:40;10.75;;;3.83;;
16385;SDS011;8302;51.154;4.456;2022-12-10T04:26:26;8.10;;;4.13;;
16385;SDS011;8302;51.154;4.456;2022-12-10T04:29:11;6.78;;;3.38;;
16385;SDS011;8302;51.154;4.456;2022-12-10T04:31:41;7.85;;;4.00;;
16385;SDS011;8302;51.154;4.456;2022-12-10T04:34:12;6.95;;;3.22;;
16385;SDS011;8302;51.154;4.456;2022-12-10T04:36:41;4.50;;;1.92;;
16385;SDS011;8302;51.154;4.456;2022-12-10T04:39:11;5.20;;;2.83;;
16385;SDS011;8302;51.154;4.456;2022-12-10T04:41:41;6.50;;;3.65;;
16385;SDS011;8302;51.154;4.456;2022-12-10T04:44:10;6.65;;;2.95;;
16385;SDS011;8302;51.154;4.456;2022-12-10T04:46:38;5.63;;;3.20;;
16385;SDS011;8302;51.154;4.456;2022-12-10T04:49:08;3.88;;;3.03;;
16385;SDS011;8302;51.154;4.456;2022-12-10T04:51:36;10.55;;;3.50;;
16385;SDS011;8302;51.154;4.456;2022-12-10T04:54:05;7.25;;;3.42;;
16385;SDS011;8302;51.154;4.456;2022-12-10T04:56:34;6.07;;;2.50;;
16385;SDS011;8302;51.154;4.456;2022-12-10T04:59:05;6.90;;;3.47;;
16385;SDS011;8302;51.154;4.456;2022-12-10T05:01:33;5.95;;;2.75;;
16385;SDS011;8302;51.154;4.456;2022-12-10T05:04:03;5.25;;;3.08;;
16385;SDS011;8302;51.154;4.456;2022-12-10T05:06:32;4.65;;;2.60;;
16385;SDS011;8302;51.154;4.456;2022-12-10T05:09:00;4.78;;;2.50;;
16385;SDS011;8302;51.154;4.456;2022-12-10T05:11:29;5.15;;;3.40;;
16385;SDS011;8302;51.154;4.456;2022-12-10T05:14:02;7.05;;;2.50;;
16385;SDS011;8302;51.154;4.456;2022-12-10T05:16:31;7.40;;;3.53;;
16385;SDS011;8302;51.154;4.456;2022-12-10T05:19:00;9.13;;;3.58;;
16385;SDS011;8302;51.154;4.456;2022-12-10T05:21:28;5.95;;;2.63;;
16385;SDS011;8302;51.154;4.456;2022-12-10T05:24:17;7.30;;;3.35;;
16385;SDS011;8302;51.154;4.456;2022-12-10T05:26:44;4.57;;;3.38;;
16385;SDS011;8302;51.154;4.456;2022-12-10T05:29:14;5.50;;;3.17;;
16385;SDS011;8302;51.154;4.456;2022-12-10T05:31:43;4.43;;;3.33;;
16385;SDS011;8302;51.154;4.456;2022-12-10T05:34:11;5.00;;;2.42;;
16385;SDS011;8302;51.154;4.456;2022-12-10T05:36:39;6.30;;;3.13;;
16385;SDS011;8302;51.154;4.456;2022-12-10T05:39:07;5.75;;;3.10;;
16385;SDS011;8302;51.154;4.456;2022-12-10T05:41:37;8.60;;;2.42;;
16385;SDS011;8302;51.154;4.456;2022-12-10T05:44:07;4.93;;;2.40;;
16385;SDS011;8302;51.154;4.456;2022-12-10T05:46:38;5.63;;;2.95;;
16385;SDS011;8302;51.154;4.456;2022-12-10T05:49:07;6.88;;;3.65;;
16385;SDS011;8302;51.154;4.456;2022-12-10T05:51:36;4.63;;;3.00;;
16385;SDS011;8302;51.154;4.456;2022-12-10T05:54:05;6.30;;;3.47;;
16385;SDS011;8302;51.154;4.456;2022-12-10T05:56:34;7.45;;;2.92;;
16385;SDS011;8302;51.154;4.456;2022-12-10T05:59:02;6.40;;;2.45;;
16385;SDS011;8302;51.154;4.456;2022-12-10T06:01:39;4.88;;;2.60;;
16385;SDS011;8302;51.154;4.456;2022-12-10T06:04:08;6.35;;;3.05;;
16385;SDS011;8302;51.154;4.456;2022-12-10T06:06:38;4.10;;;1.80;;
16385;SDS011;8302;51.154;4.456;2022-12-10T06:09:06;5.35;;;3.38;;
16385;SDS011;8302;51.154;4.456;2022-12-10T06:11:36;3.55;;;2.47;;
16385;SDS011;8302;51.154;4.456;2022-12-10T06:14:08;6.15;;;2.75;;
16385;SDS011;8302;51.154;4.456;2022-12-10T06:16:36;6.72;;;3.15;;
16385;SDS011;8302;51.154;4.456;2022-12-10T06:19:05;4.85;;;2.60;;
16385;SDS011;8302;51.154;4.456;2022-12-10T06:21:34;9.10;;;3.35;;
16385;SDS011;8302;51.154;4.456;2022-12-10T06:24:02;8.25;;;3.33;;
16385;SDS011;8302;51.154;4.456;2022-12-10T06:26:30;6.45;;;2.78;;
16385;SDS011;8302;51.154;4.456;2022-12-10T06:28:59;6.00;;;2.95;;
16385;SDS011;8302;51.154;4.456;2022-12-10T06:31:28;3.60;;;1.80;;
16385;SDS011;8302;51.154;4.456;2022-12-10T06:33:56;4.30;;;2.67;;
16385;SDS011;8302;51.154;4.456;2022-12-10T06:36:26;5.60;;;2.47;;
16385;SDS011;8302;51.154;4.456;2022-12-10T06:38:53;7.60;;;2.90;;
16385;SDS011;8302;51.154;4.456;2022-12-10T06:41:22;6.10;;;2.72;;
16385;SDS011;8302;51.154;4.456;2022-12-10T06:43:50;6.32;;;3.67;;
16385;SDS011;8302;51.154;4.456;2022-12-10T06:46:19;5.40;;;2.58;;
16385;SDS011;8302;51.154;4.456;2022-12-10T06:48:47;5.63;;;3.03;;
16385;SDS011;8302;51.154;4.456;2022-12-10T06:51:16;6.97;;;2.65;;
16385;SDS011;8302;51.154;4.456;2022-12-10T06:53:46;6.13;;;3.28;;
16385;SDS011;8302;51.154;4.456;2022-12-10T06:56:15;5.85;;;3.00;;
16385;SDS011;8302;51.154;4.456;2022-12-10T06:58:44;5.18;;;2.80;;
16385;SDS011;8302;51.154;4.456;2022-12-10T07:01:13;5.30;;;2.45;;
16385;SDS011;8302;51.154;4.456;2022-12-10T07:03:42;5.90;;;3.33;;
16385;SDS011;8302;51.154;4.456;2022-12-10T07:06:11;7.82;;;3.35;;
16385;SDS011;8302;51.154;4.456;2022-12-10T07:08:39;5.18;;;2.97;;
16385;SDS011;8302;51.154;4.456;2022-12-10T07:11:10;8.30;;;2.33;;
16385;SDS011;8302;51.154;4.456;2022-12-10T07:13:39;7.22;;;3.13;;
16385;SDS011;8302;51.154;4.456;2022-12-10T07:16:11;7.38;;;3.05;;
16385;SDS011;8302;51.154;4.456;2022-12-10T07:18:40;3.25;;;1.70;;
16385;SDS011;8302;51.154;4.456;2022-12-10T07:21:16;6.85;;;2.92;;
16385;SDS011;8302;51.154;4.456;2022-12-10T07:23:44;4.95;;;2.97;;
16385;SDS011;8302;51.154;4.456;2022-12-10T07:26:16;4.95;;;2.58;;
16385;SDS011;8302;51.154;4.456;2022-12-10T07:28:43;4.15;;;2.20;;
16385;SDS011;8302;51.154;4.456;2022-12-10T07:31:19;4.18;;;2.42;;
16385;SDS011;8302;51.154;4.456;2022-12-10T07:33:49;5.90;;;2.90;;
16385;SDS011;8302;51.154;4.456;2022-12-10T07:36:18;7.97;;;3.28;;
16385;SDS011;8302;51.154;4.456;2022-12-10T07:38:46;5.70;;;2.90;;
16385;SDS011;8302;51.154;4.456;2022-12-10T07:41:16;4.93;;;2.67;;
16385;SDS011;8302;51.154;4.456;2022-12-10T07:43:44;6.95;;;2.78;;
16385;SDS011;8302;51.154;4.456;2022-12-10T07:46:14;4.30;;;3.15;;
16385;SDS011;8302;51.154;4.456;2022-12-10T07:48:43;4.53;;;2.17;;
16385;SDS011;8302;51.154;4.456;2022-12-10T07:51:11;5.15;;;2.83;;
16385;SDS011;8302;51.154;4.456;2022-12-10T07:53:41;4.82;;;2.78;;
16385;SDS011;8302;51.154;4.456;2022-12-10T07:56:09;3.75;;;2.60;;
16385;SDS011;8302;51.154;4.456;2022-12-10T07:58:42;4.63;;;3.13;;
16385;SDS011;8302;51.154;4.456;2022-12-10T08:01:11;7.63;;;2.95;;
16385;SDS011;8302;51.154;4.456;2022-12-10T08:03:40;6.97;;;3.38;;
16385;SDS011;8302;51.154;4.456;2022-12-10T08:06:10;7.53;;;3.25;;
16385;SDS011;8302;51.154;4.456;2022-12-10T08:08:40;6.10;;;2.88;;
16385;SDS011;8302;51.154;4.456;2022-12-10T08:11:09;3.72;;;2.20;;
16385;SDS011;8302;51.154;4.456;2022-12-10T08:13:37;7.65;;;2.95;;
16385;SDS011;8302;51.154;4.456;2022-12-10T08:16:10;5.32;;;2.58;;
16385;SDS011;8302;51.154;4.456;2022-12-10T08:18:39;6.47;;;3.13;;
16385;SDS011;8302;51.154;4.456;2022-12-10T08:21:08;5.90;;;2.75;;
16385;SDS011;8302;51.154;4.456;2022-12-10T08:23:37;3.50;;;2.28;;
16385;SDS011;8302;51.154;4.456;2022-12-10T08:26:08;9.20;;;3.63;;
16385;SDS011;8302;51.154;4.456;2022-12-10T08:28:38;4.93;;;2.92;;
16385;SDS011;8302;51.154;4.456;2022-12-10T08:31:09;4.03;;;2.33;;
16385;SDS011;8302;51.154;4.456;2022-12-10T08:33:39;3.00;;;2.53;;
16385;SDS011;8302;51.154;4.456;2022-12-10T08:36:08;4.30;;;2.03;;
16385;SDS011;8302;51.154;4.456;2022-12-10T08:38:38;5.65;;;2.25;;
16385;SDS011;8302;51.154;4.456;2022-12-10T08:41:06;5.05;;;2.17;;
16385;SDS011;8302;51.154;4.456;2022-12-10T08:43:35;4.78;;;2.53;;
16385;SDS011;8302;51.154;4.456;2022-12-10T08:46:03;7.28;;;2.28;;
16385;SDS011;8302;51.154;4.456;2022-12-10T08:48:34;4.63;;;2.55;;
16385;SDS011;8302;51.154;4.456;2022-12-10T08:51:03;7.40;;;3.00;;
16385;SDS011;8302;51.154;4.456;2022-12-10T08:53:31;6.82;;;2.85;;
16385;SDS011;8302;51.154;4.456;2022-12-10T08:56:00;5.75;;;3.30;;
16385;SDS011;8302;51.154;4.456;2022-12-10T08:58:28;6.72;;;3.13;;
16385;SDS011;8302;51.154;4.456;2022-12-10T09:00:57;11.20;;;6.95;;
16385;SDS011;8302;51.154;4.456;2022-12-10T09:03:25;11.65;;;7.10;;
16385;SDS011;8302;51.154;4.456;2022-12-10T09:05:55;7.60;;;3.65;;
16385;SDS011;8302;51.154;4.456;2022-12-10T09:08:23;7.05;;;2.63;;
16385;SDS011;8302;51.154;4.456;2022-12-10T09:10:52;9.48;;;3.55;;
16385;SDS011;8302;51.154;4.456;2022-12-10T09:13:21;6.63;;;2.60;;
16385;SDS011;8302;51.154;4.456;2022-12-10T09:15:49;7.15;;;4.07;;
16385;SDS011;8302;51.154;4.456;2022-12-10T09:18:18;5.10;;;3.35;;
16385;SDS011;8302;51.154;4.456;2022-12-10T09:20:46;8.23;;;4.28;;
16385;SDS011;8302;51.154;4.456;2022-12-10T09:23:16;7.63;;;2.83;;
16385;SDS011;8302;51.154;4.456;2022-12-10T09:25:44;6.60;;;3.35;;
16385;SDS011;8302;51.154;4.456;2022-12-10T09:28:12;7.88;;;3.45;;
16385;SDS011;8302;51.154;4.456;2022-12-10T09:30:41;6.75;;;4.10;;
16385;SDS011;8302;51.154;4.456;2022-12-10T09:33:09;7.32;;;4.05;;
16385;SDS011;8302;51.154;4.456;2022-12-10T09:35:41;7.57;;;3.65;;
16385;SDS011;8302;51.154;4.456;2022-12-10T09:38:10;10.77;;;4.70;;
16385;SDS011;8302;51.154;4.456;2022-12-10T09:40:41;6.90;;;3.60;;
16385;SDS011;8302;51.154;4.456;2022-12-10T09:43:13;7.47;;;3.80;;
16385;SDS011;8302;51.154;4.456;2022-12-10T09:45:46;10.40;;;4.53;;
16385;SDS011;8302;51.154;4.456;2022-12-10T09:48:19;9.18;;;4.18;;
16385;SDS011;8302;51.154;4.456;2022-12-10T09:50:50;10.40;;;4.72;;
16385;SDS011;8302;51.154;4.456;2022-12-10T09:53:20;8.15;;;4.55;;
16385;SDS011;8302;51.154;4.456;2022-12-10T09:55:51;10.07;;;3.42;;
16385;SDS011;8302;51.154;4.456;2022-12-10T09:58:20;10.73;;;4.65;;
16385;SDS011;8302;51.154;4.456;2022-12-10T10:00:55;10.07;;;4.78;;
16385;SDS011;8302;51.154;4.456;2022-12-10T10:03:24;12.85;;;4.03;;
16385;SDS011;8302;51.154;4.456;2022-12-10T10:05:53;8.95;;;4.13;;
16385;SDS011;8302;51.154;4.456;2022-12-10T10:08:23;10.27;;;3.95;;
16385;SDS011;8302;51.154;4.456;2022-12-10T10:10:56;5.47;;;4.00;;
16385;SDS011;8302;51.154;4.456;2022-12-10T10:13:27;9.57;;;4.20;;
16385;SDS011;8302;51.154;4.456;2022-12-10T10:16:00;11.52;;;4.90;;
16385;SDS011;8302;51.154;4.456;2022-12-10T10:18:38;10.45;;;4.30;;
16385;SDS011;8302;51.154;4.456;2022-12-10T10:21:14;10.40;;;5.25;;
16385;SDS011;8302;51.154;4.456;2022-12-10T10:23:44;10.70;;;4.65;;
16385;SDS011;8302;51.154;4.456;2022-12-10T10:26:15;7.72;;;4.70;;
16385;SDS011;8302;51.154;4.456;2022-12-10T10:28:43;17.75;;;5.85;;
16385;SDS011;8302;51.154;4.456;2022-12-10T10:31:15;11.20;;;5.75;;
16385;SDS011;8302;51.154;4.456;2022-12-10T10:33:48;9.85;;;4.72;;
16385;SDS011;8302;51.154;4.456;2022-12-10T10:36:17;10.43;;;4.10;;
16385;SDS011;8302;51.154;4.456;2022-12-10T10:38:50;9.48;;;4.55;;
16385;SDS011;8302;51.154;4.456;2022-12-10T10:41:20;9.98;;;4.15;;
16385;SDS011;8302;51.154;4.456;2022-12-10T10:43:48;7.80;;;4.53;;
16385;SDS011;8302;51.154;4.456;2022-12-10T10:46:21;9.00;;;5.25;;
16385;SDS011;8302;51.154;4.456;2022-12-10T10:48:50;16.20;;;5.53;;
16385;SDS011;8302;51.154;4.456;2022-12-10T10:51:20;11.55;;;5.07;;
16385;SDS011;8302;51.154;4.456;2022-12-10T10:53:50;11.90;;;5.82;;
16385;SDS011;8302;51.154;4.456;2022-12-10T10:56:21;11.30;;;4.72;;
16385;SDS011;8302;51.154;4.456;2022-12-10T10:58:53;10.15;;;4.55;;
16385;SDS011;8302;51.154;4.456;2022-12-10T11:01:23;8.33;;;3.30;;
16385;SDS011;8302;51.154;4.456;2022-12-10T11:03:53;9.75;;;5.38;;
16385;SDS011;8302;51.154;4.456;2022-12-10T11:06:22;11.55;;;4.65;;
16385;SDS011;8302;51.154;4.456;2022-12-10T11:08:51;12.40;;;5.55;;
16385;SDS011;8302;51.154;4.456;2022-12-10T11:11:25;13.10;;;5.40;;
16385;SDS011;8302;51.154;4.456;2022-12-10T11:14:12;14.23;;;4.82;;
16385;SDS011;8302;51.154;4.456;2022-12-10T11:16:40;13.68;;;6.18;;
16385;SDS011;8302;51.154;4.456;2022-12-10T11:19:16;13.15;;;4.80;;
16385;SDS011;8302;51.154;4.456;2022-12-10T11:21:46;11.43;;;5.68;;
16385;SDS011;8302;51.154;4.456;2022-12-10T11:24:15;15.00;;;6.07;;
16385;SDS011;8302;51.154;4.456;2022-12-10T11:35:08;14.93;;;6.90;;
16385;SDS011;8302;51.154;4.456;2022-12-10T11:37:39;14.77;;;7.07;;
16385;SDS011;8302;51.154;4.456;2022-12-10T11:40:14;18.35;;;7.15;;
16385;SDS011;8302;51.154;4.456;2022-12-10T11:42:46;13.00;;;6.53;;
16385;SDS011;8302;51.154;4.456;2022-12-10T11:45:18;17.52;;;7.05;;
16385;SDS011;8302;51.154;4.456;2022-12-10T11:47:51;13.77;;;6.53;;
16385;SDS011;8302;51.154;4.456;2022-12-10T11:50:26;16.02;;;6.45;;
16385;SDS011;8302;51.154;4.456;2022-12-10T11:53:02;14.57;;;6.30;;
16385;SDS011;8302;51.154;4.456;2022-12-10T11:55:34;12.18;;;6.75;;
16385;SDS011;8302;51.154;4.456;2022-12-10T11:58:09;13.18;;;6.07;;
16385;SDS011;8302;51.154;4.456;2022-12-10T12:00:46;13.60;;;6.80;;
16385;SDS011;8302;51.154;4.456;2022-12-10T12:03:32;14.88;;;6.38;;
16385;SDS011;8302;51.154;4.456;2022-12-10T12:06:09;15.90;;;6.28;;
16385;SDS011;8302;51.154;4.456;2022-12-10T12:08:44;11.43;;;6.35;;
16385;SDS011;8302;51.154;4.456;2022-12-10T12:11:16;14.48;;;6.10;;
16385;SDS011;8302;51.154;4.456;2022-12-10T12:13:51;13.88;;;6.57;;
16385;SDS011;8302;51.154;4.456;2022-12-10T12:16:23;16.05;;;6.60;;
16385;SDS011;8302;51.154;4.456;2022-12-10T12:18:54;13.02;;;6.18;;
16385;SDS011;8302;51.154;4.456;2022-12-10T12:21:25;14.68;;;6.47;;
16385;SDS011;8302;51.154;4.456;2022-12-10T12:23:54;14.43;;;7.97;;
16385;SDS011;8302;51.154;4.456;2022-12-10T12:26:31;14.32;;;7.72;;
16385;SDS011;8302;51.154;4.456;2022-12-10T12:29:01;12.18;;;6.55;;
16385;SDS011;8302;51.154;4.456;2022-12-10T12:31:35;17.08;;;6.15;;
16385;SDS011;8302;51.154;4.456;2022-12-10T12:34:11;15.60;;;7.03;;
16385;SDS011;8302;51.154;4.456;2022-12-10T12:36:43;11.82;;;6.15;;
16385;SDS011;8302;51.154;4.456;2022-12-10T12:39:14;14.52;;;6.43;;
16385;SDS011;8302;51.154;4.456;2022-12-10T12:41:46;11.48;;;6.13;;
16385;SDS011;8302;51.154;4.456;2022-12-10T12:44:18;12.23;;;5.63;;
16385;SDS011;8302;51.154;4.456;2022-12-10T12:46:51;12.70;;;5.50;;
16385;SDS011;8302;51.154;4.456;2022-12-10T12:49:20;14.00;;;6.25;;
16385;SDS011;8302;51.154;4.456;2022-12-10T12:51:51;14.45;;;6.47;;
16385;SDS011;8302;51.154;4.456;2022-12-10T12:54:21;14.25;;;6.40;;
16385;SDS011;8302;51.154;4.456;2022-12-10T12:57:01;11.40;;;6.32;;
16385;SDS011;8302;51.154;4.456;2022-12-10T12:59:50;17.52;;;7.13;;
16385;SDS011;8302;51.154;4.456;2022-12-10T13:02:23;13.85;;;6.25;;
16385;SDS011;8302;51.154;4.456;2022-12-10T13:04:54;11.45;;;6.25;;
16385;SDS011;8302;51.154;4.456;2022-12-10T13:07:31;12.25;;;5.82;;
16385;SDS011;8302;51.154;4.456;2022-12-10T13:10:16;12.70;;;6.32;;
16385;SDS011;8302;51.154;4.456;2022-12-10T13:12:46;14.30;;;6.65;;
16385;SDS011;8302;51.154;4.456;2022-12-10T13:15:18;9.95;;;5.88;;
16385;SDS011;8302;51.154;4.456;2022-12-10T13:18:03;11.85;;;5.28;;
16385;SDS011;8302;51.154;4.456;2022-12-10T13:20:33;14.32;;;6.50;;
16385;SDS011;8302;51.154;4.456;2022-12-10T13:23:04;9.75;;;5.60;;
16385;SDS011;8302;51.154;4.456;2022-12-10T13:28:21;11.35;;;4.93;;
16385;SDS011;8302;51.154;4.456;2022-12-10T13:31:16;12.00;;;5.05;;
16385;SDS011;8302;51.154;4.456;2022-12-10T13:33:47;10.07;;;5.47;;
16385;SDS011;8302;51.154;4.456;2022-12-10T13:36:21;11.77;;;5.63;;
16385;SDS011;8302;51.154;4.456;2022-12-10T13:39:12;10.00;;;5.10;;
16385;SDS011;8302;51.154;4.456;2022-12-10T13:44:48;11.05;;;5.55;;
16385;SDS011;8302;51.154;4.456;2022-12-10T13:47:26;11.73;;;5.25;;
16385;SDS011;8302;51.154;4.456;2022-12-10T13:49:56;9.40;;;5.13;;
16385;SDS011;8302;51.154;4.456;2022-12-10T13:52:25;11.45;;;5.07;;
16385;SDS011;8302;51.154;4.456;2022-12-10T13:55:01;13.40;;;5.40;;
16385;SDS011;8302;51.154;4.456;2022-12-10T13:57:53;13.60;;;5.50;;
16385;SDS011;8302;51.154;4.456;2022-12-10T14:00:29;10.13;;;4.95;;
16385;SDS011;8302;51.154;4.456;2022-12-10T14:03:06;12.65;;;5.40;;
16385;SDS011;8302;51.154;4.456;2022-12-10T14:05:39;10.18;;;6.28;;
16385;SDS011;8302;51.154;4.456;2022-12-10T14:08:11;8.45;;;4.85;;
16385;SDS011;8302;51.154;4.456;2022-12-10T14:10:43;14.65;;;6.65;;
16385;SDS011;8302;51.154;4.456;2022-12-10T14:13:13;13.70;;;5.55;;
16385;SDS011;8302;51.154;4.456;2022-12-10T14:15:46;10.75;;;5.35;;
16385;SDS011;8302;51.154;4.456;2022-12-10T14:18:16;12.10;;;6.45;;
16385;SDS011;8302;51.154;4.456;2022-12-10T14:20:47;13.27;;;5.85;;
16385;SDS011;8302;51.154;4.456;2022-12-10T14:23:21;10.30;;;5.07;;
16385;SDS011;8302;51.154;4.456;2022-12-10T14:26:13;9.68;;;5.25;;
16385;SDS011;8302;51.154;4.456;2022-12-10T14:28:42;10.35;;;6.00;;
16385;SDS011;8302;51.154;4.456;2022-12-10T14:31:13;9.20;;;5.13;;
16385;SDS011;8302;51.154;4.456;2022-12-10T14:33:41;12.50;;;6.05;;
16385;SDS011;8302;51.154;4.456;2022-12-10T14:36:14;9.13;;;4.63;;
16385;SDS011;8302;51.154;4.456;2022-12-10T14:38:45;9.05;;;5.30;;
16385;SDS011;8302;51.154;4.456;2022-12-10T14:41:18;8.15;;;5.28;;
16385;SDS011;8302;51.154;4.456;2022-12-10T14:43:46;12.75;;;5.80;;
16385;SDS011;8302;51.154;4.456;2022-12-10T14:46:16;10.40;;;5.95;;
16385;SDS011;8302;51.154;4.456;2022-12-10T14:48:48;10.02;;;4.85;;
16385;SDS011;8302;51.154;4.456;2022-12-10T14:51:18;10.40;;;5.57;;
16385;SDS011;8302;51.154;4.456;2022-12-10T14:53:47;14.02;;;5.80;;
16385;SDS011;8302;51.154;4.456;2022-12-10T14:56:18;11.98;;;5.70;;
16385;SDS011;8302;51.154;4.456;2022-12-10T14:58:50;9.38;;;5.53;;
16385;SDS011;8302;51.154;4.456;2022-12-10T15:01:21;8.20;;;4.78;;
16385;SDS011;8302;51.154;4.456;2022-12-10T15:03:51;9.55;;;4.97;;
16385;SDS011;8302;51.154;4.456;2022-12-10T15:06:22;8.65;;;5.13;;
16385;SDS011;8302;51.154;4.456;2022-12-10T15:08:51;8.68;;;4.70;;
16385;SDS011;8302;51.154;4.456;2022-12-10T15:11:23;9.18;;;4.13;;
16385;SDS011;8302;51.154;4.456;2022-12-10T15:13:52;9.20;;;4.45;;
16385;SDS011;8302;51.154;4.456;2022-12-10T15:16:27;10.82;;;6.35;;
16385;SDS011;8302;51.154;4.456;2022-12-10T15:19:06;9.80;;;5.43;;
16385;SDS011;8302;51.154;4.456;2022-12-10T15:21:40;8.23;;;4.40;;
16385;SDS011;8302;51.154;4.456;2022-12-10T15:24:17;6.88;;;3.78;;
16385;SDS011;8302;51.154;4.456;2022-12-10T15:26:48;13.57;;;4.82;;
16385;SDS011;8302;51.154;4.456;2022-12-10T15:29:29;9.00;;;4.82;;
16385;SDS011;8302;51.154;4.456;2022-12-10T15:31:58;8.63;;;4.03;;
16385;SDS011;8302;51.154;4.456;2022-12-10T15:34:28;10.93;;;5.03;;
16385;SDS011;8302;51.154;4.456;2022-12-10T15:36:58;9.80;;;4.97;;